createdAt,value
2022-12-18T00:01:39.738Z,90.90
2022-12-18T00:04:09.970Z,93.50
2022-12-18T00:06:38.265Z,90.65
2022-12-18T00:09:07.690Z,93.05
2022-12-18T00:11:36.613Z,89.38
2022-12-18T00:14:04.882Z,85.88
2022-12-18T00:16:34.097Z,78.85
2022-12-18T00:19:03.090Z,84.72
2022-12-18T00:21:32.631Z,93.55
2022-12-18T00:24:01.906Z,92.63
2022-12-18T00:26:33.508Z,85.70
2022-12-18T00:29:06.411Z,98.00
2022-12-18T00:31:35.830Z,88.68
2022-12-18T00:34:04.769Z,96.82
2022-12-18T00:36:36.370Z,81.00
2022-12-18T00:39:07.085Z,86.55
2022-12-18T00:41:54.278Z,89.95
2022-12-18T00:44:22.352Z,85.18
2022-12-18T00:46:50.576Z,85.82
2022-12-18T00:49:22.666Z,85.90
2022-12-18T00:51:51.478Z,83.35
2022-12-18T00:54:20.059Z,82.28
2022-12-18T00:56:50.110Z,85.90
2022-12-18T00:59:20.057Z,79.47
2022-12-18T01:01:48.847Z,86.45
2022-12-18T01:04:17.313Z,91.85
2022-12-18T01:06:47.163Z,89.75
2022-12-18T01:09:15.398Z,87.43
2022-12-18T01:11:43.799Z,85.97
2022-12-18T01:14:14.073Z,94.82
2022-12-18T01:16:42.272Z,92.43
2022-12-18T01:19:11.420Z,85.95
2022-12-18T01:21:39.471Z,89.45
2022-12-18T01:24:08.047Z,88.40
2022-12-18T01:26:36.179Z,91.38
2022-12-18T01:29:04.971Z,87.88
2022-12-18T01:31:35.872Z,84.72
2022-12-18T01:34:06.448Z,81.13
2022-12-18T01:36:39.906Z,75.15
2022-12-18T01:39:10.374Z,79.57
2022-12-18T01:41:52.709Z,78.40
2022-12-18T01:45:03.408Z,78.60
2022-12-18T01:47:38.704Z,78.28
2022-12-18T01:50:10.355Z,85.38
2022-12-18T01:52:39.692Z,82.10
2022-12-18T01:55:09.239Z,85.28
2022-12-18T01:57:38.279Z,81.45
2022-12-18T02:00:10.377Z,91.20
2022-12-18T02:02:43.687Z,74.05
2022-12-18T02:05:13.858Z,82.13
2022-12-18T02:07:51.815Z,83.60
2022-12-18T02:10:29.001Z,83.45
2022-12-18T02:13:04.297Z,78.05
2022-12-18T02:15:41.316Z,69.28
2022-12-18T02:18:15.243Z,70.95
2022-12-18T02:20:48.992Z,72.85
2022-12-18T02:23:36.006Z,70.65
2022-12-18T02:26:16.431Z,74.22
2022-12-18T02:28:48.997Z,74.88
2022-12-18T02:31:24.297Z,80.03
2022-12-18T02:33:58.053Z,80.72
2022-12-18T02:36:28.497Z,81.60
2022-12-18T02:39:00.687Z,81.25
2022-12-18T02:41:31.654Z,81.13
2022-12-18T02:44:02.588Z,87.00
2022-12-18T02:46:35.807Z,86.05
2022-12-18T02:49:21.372Z,87.45
2022-12-18T02:51:55.644Z,82.07
2022-12-18T02:54:44.751Z,82.88
2022-12-18T02:57:21.673Z,78.78
2022-12-18T02:59:58.689Z,81.75
2022-12-18T03:02:32.808Z,89.60
2022-12-18T03:07:39.008Z,72.38
2022-12-18T03:10:14.298Z,80.40
2022-12-18T03:12:48.905Z,87.57
2022-12-18T03:15:21.313Z,85.10
2022-12-18T03:17:59.819Z,90.90
2022-12-18T03:20:33.054Z,93.05
2022-12-18T03:23:06.348Z,86.53
2022-12-18T03:25:35.523Z,84.60
2022-12-18T03:28:09.500Z,83.63
2022-12-18T03:33:12.975Z,86.47
2022-12-18T03:35:46.270Z,80.60
2022-12-18T03:38:15.713Z,86.63
2022-12-18T03:40:58.382Z,82.32
2022-12-18T03:43:41.842Z,93.07
2022-12-18T03:46:18.357Z,92.63
2022-12-18T03:48:50.422Z,86.00
2022-12-18T03:51:27.170Z,82.90
2022-12-18T03:54:00.450Z,86.85
2022-12-18T03:56:37.691Z,85.47
2022-12-18T03:59:11.154Z,63.42
2022-12-18T04:01:44.958Z,92.97
2022-12-18T04:04:17.005Z,85.82
2022-12-18T04:06:49.016Z,91.80
2022-12-18T04:09:21.342Z,61.47
2022-12-18T04:11:50.172Z,82.85
2022-12-18T04:14:19.946Z,85.15
2022-12-18T04:16:52.619Z,83.88
2022-12-18T04:19:25.163Z,82.00
2022-12-18T04:21:54.780Z,85.13
2022-12-18T04:24:23.047Z,99.15
2022-12-18T04:27:07.232Z,106.95
2022-12-18T04:29:43.046Z,111.45
2022-12-18T04:32:12.096Z,109.28
2022-12-18T04:34:41.478Z,107.68
2022-12-18T04:37:09.776Z,103.75
2022-12-18T04:39:37.985Z,94.60
2022-12-18T04:42:11.675Z,94.70
2022-12-18T04:44:39.723Z,93.88
2022-12-18T04:47:09.559Z,87.75
2022-12-18T04:49:37.600Z,84.13
2022-12-18T04:52:05.939Z,83.28
2022-12-18T04:54:34.000Z,83.80
2022-12-18T04:57:02.056Z,78.72
2022-12-18T04:59:30.162Z,90.22
2022-12-18T05:02:00.367Z,87.05
2022-12-18T05:04:29.928Z,85.65
2022-12-18T05:06:58.340Z,84.03
2022-12-18T05:09:26.423Z,90.07
2022-12-18T05:11:54.981Z,84.95
2022-12-18T05:14:23.033Z,82.97
2022-12-18T05:16:51.485Z,95.68
2022-12-18T05:19:19.846Z,92.05
2022-12-18T05:21:49.337Z,89.22
2022-12-18T05:24:17.567Z,87.20
2022-12-18T05:26:45.631Z,89.10
2022-12-18T05:29:14.212Z,93.13
2022-12-18T05:31:42.982Z,89.03
2022-12-18T05:34:12.046Z,97.75
2022-12-18T05:36:40.942Z,85.32
2022-12-18T05:39:10.483Z,95.40
2022-12-18T05:41:38.496Z,93.30
2022-12-18T05:44:06.999Z,92.15
2022-12-18T05:46:35.149Z,97.97
2022-12-18T05:49:04.020Z,93.93
2022-12-18T05:51:32.436Z,96.25
2022-12-18T05:54:00.460Z,90.43
2022-12-18T05:56:30.040Z,104.05
2022-12-18T05:58:58.215Z,106.68
2022-12-18T06:01:28.381Z,96.88
2022-12-18T06:03:57.291Z,85.13
2022-12-18T06:06:27.111Z,76.68
2022-12-18T06:08:56.043Z,77.75
2022-12-18T06:11:25.825Z,82.88
2022-12-18T06:13:59.018Z,79.90
2022-12-18T06:16:27.860Z,94.97
2022-12-18T06:18:58.156Z,79.55
2022-12-18T06:21:26.225Z,92.43
2022-12-18T06:23:54.311Z,87.53
2022-12-18T06:26:27.843Z,99.28
2022-12-18T06:28:58.083Z,85.15
2022-12-18T06:31:27.261Z,81.78
2022-12-18T06:33:55.388Z,85.88
2022-12-18T06:36:23.663Z,80.85
2022-12-18T06:38:51.719Z,74.68
2022-12-18T06:41:22.631Z,73.22
2022-12-18T06:43:50.659Z,75.82
2022-12-18T06:46:20.326Z,79.40
2022-12-18T06:48:51.874Z,76.43
2022-12-18T06:51:21.758Z,73.57
2022-12-18T06:53:49.887Z,77.57
2022-12-18T06:56:18.194Z,70.25
2022-12-18T06:58:48.578Z,82.10
2022-12-18T07:01:18.156Z,84.13
2022-12-18T07:03:48.824Z,94.10
2022-12-18T07:06:18.602Z,92.70
2022-12-18T07:08:47.484Z,94.40
2022-12-18T07:11:15.928Z,79.10
2022-12-18T07:13:44.029Z,71.78
2022-12-18T07:16:20.851Z,85.32
2022-12-18T07:18:53.626Z,70.68
2022-12-18T07:21:22.181Z,73.03
2022-12-18T07:23:50.405Z,77.03
2022-12-18T07:26:20.796Z,73.03
2022-12-18T07:28:49.296Z,76.80
2022-12-18T07:31:19.555Z,76.82
2022-12-18T07:33:50.682Z,77.05
2022-12-18T07:36:21.027Z,81.30
2022-12-18T07:38:49.927Z,78.68
2022-12-18T07:41:19.794Z,70.35
2022-12-18T07:43:48.755Z,73.53
2022-12-18T07:46:17.737Z,71.75
2022-12-18T07:48:49.470Z,72.85
2022-12-18T07:51:20.381Z,75.10
2022-12-18T07:53:52.013Z,78.18
2022-12-18T07:56:30.025Z,67.80
2022-12-18T07:58:59.879Z,72.57
2022-12-18T08:01:28.177Z,70.82
2022-12-18T08:03:56.691Z,68.90
2022-12-18T08:06:26.262Z,70.22
2022-12-18T08:08:55.496Z,77.50
2022-12-18T08:11:25.115Z,76.95
2022-12-18T08:13:53.449Z,73.50
2022-12-18T08:16:22.346Z,79.45
2022-12-18T08:18:50.771Z,86.75
2022-12-18T08:21:23.846Z,85.95
2022-12-18T08:23:54.831Z,82.63
2022-12-18T08:26:23.988Z,87.13
2022-12-18T08:28:53.123Z,81.13
2022-12-18T08:31:22.059Z,72.45
2022-12-18T08:33:52.438Z,71.65
2022-12-18T08:36:20.556Z,81.70
2022-12-18T08:38:49.263Z,73.05
2022-12-18T08:41:19.484Z,78.95
2022-12-18T08:44:04.951Z,75.70
2022-12-18T08:46:37.932Z,72.22
2022-12-18T08:49:06.755Z,67.80
2022-12-18T08:51:35.418Z,65.10
2022-12-18T08:54:04.635Z,78.68
2022-12-18T08:56:36.128Z,72.50
2022-12-18T08:59:05.302Z,74.38
2022-12-18T09:01:33.750Z,75.15
2022-12-18T09:04:02.669Z,74.00
2022-12-18T09:06:30.731Z,76.20
2022-12-18T09:08:59.427Z,70.35
2022-12-18T09:11:29.517Z,72.40
2022-12-18T09:14:00.423Z,127.38
2022-12-18T09:16:32.561Z,234.10
2022-12-18T09:19:02.004Z,149.10
2022-12-18T09:21:33.486Z,74.53
2022-12-18T09:24:08.813Z,63.17
2022-12-18T09:26:37.888Z,63.53
2022-12-18T09:29:09.191Z,67.07
2022-12-18T09:31:38.762Z,68.95
2022-12-18T09:34:08.629Z,66.20
2022-12-18T09:36:36.804Z,68.80
2022-12-18T09:39:08.578Z,82.97
2022-12-18T09:41:48.958Z,65.68
2022-12-18T09:44:24.861Z,66.88
2022-12-18T09:46:59.376Z,67.68
2022-12-18T09:49:32.127Z,67.35
2022-12-18T09:52:06.563Z,65.90
2022-12-18T09:57:06.533Z,66.03
2022-12-18T09:59:40.698Z,70.05
2022-12-18T10:02:20.175Z,77.25
2022-12-18T10:05:01.753Z,72.40
2022-12-18T10:07:40.563Z,76.95
2022-12-18T10:10:18.541Z,74.13
2022-12-18T10:13:04.038Z,72.15
2022-12-18T10:15:42.119Z,65.10
2022-12-18T10:18:26.219Z,70.53
2022-12-18T10:20:59.044Z,64.78
2022-12-18T10:23:34.578Z,63.15
2022-12-18T10:26:06.739Z,62.17
2022-12-18T10:28:38.468Z,71.32
2022-12-18T10:31:14.873Z,60.40
2022-12-18T10:33:42.973Z,64.85
2022-12-18T10:36:11.239Z,64.35
2022-12-18T10:38:40.091Z,62.17
2022-12-18T10:41:27.419Z,62.47
2022-12-18T10:44:13.536Z,62.38
2022-12-18T10:46:43.636Z,59.33
2022-12-18T10:49:23.408Z,60.35
2022-12-18T10:51:52.993Z,55.80
2022-12-18T10:54:24.996Z,71.07
2022-12-18T10:56:53.109Z,53.28
2022-12-18T10:59:21.627Z,57.80
2022-12-18T11:01:57.389Z,56.85
2022-12-18T11:04:27.689Z,52.15
2022-12-18T11:07:02.093Z,53.85
2022-12-18T11:12:01.371Z,52.28
2022-12-18T11:14:31.437Z,55.20
2022-12-18T11:17:25.422Z,53.88
2022-12-18T11:19:55.296Z,66.40
2022-12-18T11:22:27.596Z,59.53
2022-12-18T11:27:54.613Z,52.90
2022-12-18T11:30:25.260Z,54.05
2022-12-18T11:32:58.905Z,59.65
2022-12-18T11:35:38.269Z,59.83
2022-12-18T11:38:13.181Z,56.45
2022-12-18T11:40:46.199Z,50.13
2022-12-18T11:43:19.055Z,50.35
2022-12-18T11:45:53.166Z,56.13
2022-12-18T11:48:27.955Z,53.85
2022-12-18T11:50:58.759Z,58.60
2022-12-18T11:53:28.229Z,53.88
2022-12-18T11:56:07.031Z,55.58
2022-12-18T11:58:45.777Z,55.80
2022-12-18T12:01:26.473Z,49.65
2022-12-18T12:04:29.635Z,56.28
2022-12-18T12:07:06.861Z,55.30
2022-12-18T12:09:43.229Z,53.33
2022-12-18T12:12:26.686Z,54.13
2022-12-18T12:15:04.182Z,51.03
2022-12-18T12:17:39.568Z,45.97
2022-12-18T12:20:19.760Z,50.67
2022-12-18T12:22:57.221Z,58.95
2022-12-18T12:25:35.571Z,62.03
2022-12-18T12:28:17.935Z,56.63
2022-12-18T12:30:57.901Z,57.75
2022-12-18T12:33:39.333Z,55.33
2022-12-18T12:36:20.976Z,51.15
2022-12-18T12:38:53.963Z,55.08
2022-12-18T12:41:43.964Z,56.60
2022-12-18T12:44:21.329Z,60.65
2022-12-18T12:46:53.096Z,54.80
2022-12-18T12:49:27.896Z,61.80
2022-12-18T12:52:05.567Z,57.97
2022-12-18T12:54:37.208Z,64.13
2022-12-18T12:57:11.893Z,57.83
2022-12-18T12:59:54.106Z,64.03
2022-12-18T13:02:28.925Z,64.63
2022-12-18T13:05:03.263Z,78.35
2022-12-18T13:10:26.879Z,57.05
2022-12-18T13:12:59.478Z,63.05
2022-12-18T13:15:32.838Z,53.13
2022-12-18T13:18:20.177Z,53.95
2022-12-18T13:20:55.139Z,56.63
2022-12-18T13:23:37.491Z,62.78
2022-12-18T13:26:36.889Z,60.33
2022-12-18T13:29:07.113Z,58.58
2022-12-18T13:32:02.413Z,66.93
2022-12-18T13:34:32.751Z,62.50
2022-12-18T13:37:35.229Z,62.35
2022-12-18T13:40:39.429Z,57.00
2022-12-18T13:43:23.182Z,69.78
2022-12-18T13:46:00.720Z,65.18
2022-12-18T13:48:31.257Z,67.13
2022-12-18T13:51:04.391Z,71.47
2022-12-18T13:53:36.929Z,76.15
2022-12-18T13:56:07.814Z,69.28
2022-12-18T13:58:35.895Z,68.80
2022-12-18T14:01:05.741Z,69.28
2022-12-18T14:03:33.992Z,61.97
2022-12-18T14:06:06.604Z,68.93
2022-12-18T14:08:39.945Z,66.03
2022-12-18T14:11:22.302Z,66.43
2022-12-18T14:13:51.473Z,67.40
2022-12-18T14:16:20.287Z,75.90
2022-12-18T14:18:55.503Z,69.65
2022-12-18T14:21:30.361Z,72.15
2022-12-18T14:24:19.560Z,70.50
2022-12-18T14:26:50.801Z,63.42
2022-12-18T14:29:25.804Z,65.88
2022-12-18T14:32:16.880Z,64.70
2022-12-18T14:34:46.033Z,62.40
2022-12-18T14:37:16.760Z,74.03
2022-12-18T14:39:55.736Z,65.03
2022-12-18T14:42:29.112Z,82.18
2022-12-18T14:45:42.126Z,65.28
2022-12-18T14:48:16.321Z,68.55
2022-12-18T14:51:02.053Z,70.97
2022-12-18T14:53:54.439Z,74.57
2022-12-18T14:56:24.703Z,70.00
2022-12-18T14:58:57.516Z,86.60
2022-12-18T15:01:29.316Z,82.82
2022-12-18T15:03:58.913Z,66.88
2022-12-18T15:06:33.320Z,77.05
2022-12-18T15:11:47.760Z,77.18
2022-12-18T15:14:40.798Z,68.43
2022-12-18T15:17:19.004Z,70.22
2022-12-18T15:19:49.012Z,66.70
2022-12-18T15:22:22.248Z,73.85
2022-12-18T15:24:52.426Z,67.55
2022-12-18T15:27:24.101Z,71.57
2022-12-18T15:30:13.739Z,72.50
2022-12-18T15:32:42.671Z,70.45
2022-12-18T15:35:16.638Z,66.22
2022-12-18T15:37:45.533Z,70.18
2022-12-18T15:40:17.911Z,81.70
2022-12-18T15:43:04.943Z,80.43
2022-12-18T15:45:34.439Z,79.97
2022-12-18T15:48:10.895Z,80.07
2022-12-18T15:50:39.038Z,78.18
2022-12-18T15:53:07.156Z,74.07
2022-12-18T15:55:56.557Z,75.65
2022-12-18T15:58:28.921Z,80.57
2022-12-18T16:01:01.366Z,74.55
2022-12-18T16:03:29.529Z,77.53
2022-12-18T16:05:59.313Z,85.78
2022-12-18T16:08:28.152Z,83.35
2022-12-18T16:10:57.010Z,77.70
2022-12-18T16:13:25.298Z,79.10
2022-12-18T16:15:53.400Z,83.38
2022-12-18T16:18:23.296Z,79.20
2022-12-18T16:20:51.584Z,75.82
2022-12-18T16:23:19.726Z,74.95
2022-12-18T16:25:48.635Z,77.45
2022-12-18T16:28:16.759Z,81.30
2022-12-18T16:30:45.844Z,82.72
2022-12-18T16:33:14.155Z,73.85
2022-12-18T16:35:43.811Z,77.38
2022-12-18T16:38:12.341Z,79.43
2022-12-18T16:41:02.936Z,79.50
2022-12-18T16:43:31.018Z,73.10
2022-12-18T16:46:01.175Z,70.93
2022-12-18T16:48:29.314Z,76.95
2022-12-18T16:51:03.694Z,82.25
2022-12-18T16:53:33.614Z,85.30
2022-12-18T16:56:03.579Z,87.43
2022-12-18T16:58:33.079Z,99.80
2022-12-18T17:01:01.217Z,92.38
2022-12-18T17:03:29.370Z,89.45
2022-12-18T17:06:05.613Z,90.60
2022-12-18T17:08:33.967Z,86.97
2022-12-18T17:11:05.854Z,87.30
2022-12-18T17:13:34.096Z,85.90
2022-12-18T17:16:06.630Z,84.55
2022-12-18T17:18:36.474Z,92.20
2022-12-18T17:21:09.487Z,95.70
2022-12-18T17:23:38.713Z,96.68
2022-12-18T17:26:08.371Z,92.05
2022-12-18T17:28:37.505Z,86.97
2022-12-18T17:31:12.803Z,94.60
2022-12-18T17:33:42.075Z,87.93
2022-12-18T17:36:12.582Z,91.78
2022-12-18T17:38:41.454Z,91.90
2022-12-18T17:41:11.523Z,90.93
2022-12-18T17:43:45.615Z,93.55
2022-12-18T17:46:15.400Z,90.43
2022-12-18T17:48:43.824Z,96.28
2022-12-18T17:51:14.062Z,91.50
2022-12-18T17:53:42.659Z,94.75
2022-12-18T17:56:14.107Z,96.97
2022-12-18T17:58:43.182Z,100.85
2022-12-18T18:01:15.133Z,91.25
2022-12-18T18:03:45.478Z,99.28
2022-12-18T18:06:18.144Z,111.25
2022-12-18T18:08:46.489Z,105.20
2022-12-18T18:11:34.808Z,132.65
2022-12-18T18:14:05.235Z,120.07
2022-12-18T18:16:37.214Z,170.85
2022-12-18T18:19:08.077Z,149.32
2022-12-18T18:21:40.442Z,153.45
2022-12-18T18:24:10.945Z,125.13
2022-12-18T18:26:39.849Z,108.05
2022-12-18T18:29:11.938Z,106.57
2022-12-18T18:31:40.913Z,102.57
2022-12-18T18:34:15.949Z,101.53
2022-12-18T18:36:46.587Z,87.18
2022-12-18T18:39:15.886Z,97.20
2022-12-18T18:41:47.194Z,105.47
2022-12-18T18:44:17.005Z,109.45
2022-12-18T18:46:45.642Z,107.20
2022-12-18T18:49:14.249Z,112.97
2022-12-18T18:51:42.551Z,108.63
2022-12-18T18:54:12.337Z,104.10
2022-12-18T18:57:11.995Z,104.03
2022-12-18T18:59:32.065Z,108.72
2022-12-18T19:02:04.762Z,99.95
2022-12-18T19:04:45.648Z,110.10
2022-12-18T19:07:18.476Z,117.90
2022-12-18T19:10:04.808Z,86.20
2022-12-18T19:12:53.740Z,102.32
2022-12-18T19:15:26.539Z,96.20
2022-12-18T19:17:54.988Z,85.82
2022-12-18T19:20:23.193Z,86.05
2022-12-18T19:22:55.596Z,83.22
2022-12-18T19:25:38.576Z,81.05
2022-12-18T19:28:21.491Z,70.85
2022-12-18T19:30:57.610Z,82.00
2022-12-18T19:33:44.312Z,82.53
2022-12-18T19:36:15.525Z,93.15
2022-12-18T19:38:45.439Z,91.30
2022-12-18T19:41:15.821Z,101.30
2022-12-18T19:43:45.498Z,112.28
2022-12-18T19:46:16.195Z,115.30
2022-12-18T19:48:45.422Z,116.18
2022-12-18T19:51:16.349Z,107.25
2022-12-18T19:53:44.732Z,101.15
2022-12-18T19:56:16.746Z,93.30
2022-12-18T19:58:47.004Z,124.20
2022-12-18T20:01:17.104Z,105.03
2022-12-18T20:03:51.608Z,94.35
2022-12-18T20:06:26.637Z,109.93
2022-12-18T20:08:59.590Z,106.28
2022-12-18T20:11:31.043Z,111.20
2022-12-18T20:13:59.791Z,117.40
2022-12-18T20:16:28.009Z,99.38
2022-12-18T20:18:59.631Z,100.93
2022-12-18T20:21:28.501Z,103.75
2022-12-18T20:23:57.260Z,111.05
2022-12-18T20:26:25.848Z,116.85
2022-12-18T20:28:56.179Z,104.70
2022-12-18T20:31:25.126Z,96.53
2022-12-18T20:33:55.652Z,106.40
2022-12-18T20:36:28.291Z,100.38
2022-12-18T20:39:00.638Z,97.10
2022-12-18T20:41:38.135Z,97.00
2022-12-18T20:44:21.600Z,94.43
2022-12-18T20:46:55.612Z,96.70
2022-12-18T20:49:25.513Z,87.85
2022-12-18T20:51:54.873Z,91.15
2022-12-18T20:54:25.705Z,102.47
2022-12-18T20:56:57.896Z,102.03
2022-12-18T20:59:27.399Z,95.10
2022-12-18T21:01:55.838Z,90.32
2022-12-18T21:04:24.652Z,93.82
2022-12-18T21:07:00.493Z,91.03
2022-12-18T21:09:38.203Z,85.03
2022-12-18T21:12:25.815Z,95.40
2022-12-18T21:14:55.392Z,85.97
2022-12-18T21:17:23.929Z,78.78
2022-12-18T21:19:54.797Z,108.15
2022-12-18T21:22:23.364Z,82.60
2022-12-18T21:24:52.656Z,88.82
2022-12-18T21:27:21.221Z,82.72
2022-12-18T21:29:49.528Z,84.07
2022-12-18T21:32:23.704Z,85.47
2022-12-18T21:34:53.755Z,91.13
2022-12-18T21:37:21.937Z,87.60
2022-12-18T21:39:51.131Z,82.60
2022-12-18T21:42:36.734Z,83.18
2022-12-18T21:45:05.504Z,82.45
2022-12-18T21:47:36.095Z,84.80
2022-12-18T21:50:05.100Z,76.47
2022-12-18T21:52:33.281Z,84.03
2022-12-18T21:55:08.466Z,87.82
2022-12-18T21:57:38.331Z,83.95
2022-12-18T22:00:08.882Z,82.93
2022-12-18T22:02:44.333Z,89.50
2022-12-18T22:05:12.659Z,85.90
2022-12-18T22:07:41.401Z,86.18
2022-12-18T22:10:10.281Z,85.10
2022-12-18T22:12:43.112Z,82.80
2022-12-18T22:15:21.501Z,85.70
2022-12-18T22:17:52.692Z,80.60
2022-12-18T22:20:26.328Z,79.97
2022-12-18T22:22:54.948Z,86.35
2022-12-18T22:25:24.002Z,84.63
2022-12-18T22:28:06.798Z,86.65
2022-12-18T22:30:35.316Z,76.63
2022-12-18T22:33:05.303Z,81.82
2022-12-18T22:35:33.381Z,83.18
2022-12-18T22:38:02.774Z,83.65
2022-12-18T22:40:31.248Z,79.25
2022-12-18T22:42:59.607Z,83.25
2022-12-18T22:45:28.998Z,86.32
2022-12-18T22:47:57.644Z,88.35
2022-12-18T22:50:27.217Z,89.13
2022-12-18T22:52:55.487Z,102.00
2022-12-18T22:55:23.680Z,118.10
2022-12-18T22:57:51.775Z,131.88
2022-12-18T23:00:24.291Z,127.60
2022-12-18T23:02:59.984Z,135.90
2022-12-18T23:05:31.859Z,127.90
2022-12-18T23:08:00.691Z,137.15
2022-12-18T23:10:29.041Z,123.78
2022-12-18T23:12:57.309Z,127.18
2022-12-18T23:15:27.920Z,146.75
2022-12-18T23:17:58.707Z,138.77
2022-12-18T23:20:27.957Z,126.25
2022-12-18T23:22:57.422Z,131.00
2022-12-18T23:25:25.441Z,129.50
2022-12-18T23:27:53.499Z,126.78
2022-12-18T23:30:22.116Z,124.45
2022-12-18T23:32:50.268Z,130.13
2022-12-18T23:35:18.812Z,117.78
2022-12-18T23:38:03.672Z,114.88
2022-12-18T23:40:33.158Z,110.45
2022-12-18T23:43:01.285Z,114.40
2022-12-18T23:45:29.408Z,117.13
2022-12-18T23:47:57.841Z,120.28
2022-12-18T23:50:29.287Z,116.38
2022-12-18T23:53:04.710Z,110.00
2022-12-18T23:55:35.716Z,115.93
2022-12-18T23:58:05.515Z,123.72
